sensor_id;sensor_type;location;lat;lon;timestamp;temperature;humidity
65406;DHT22;52016;51.228;-2.322;2022-12-18T00:00:00;-0.40;78.30
65406;DHT22;52016;51.228;-2.322;2022-12-18T00:03:43;-0.40;78.40
65406;DHT22;52016;51.228;-2.322;2022-12-18T00:07:26;-0.40;78.30
65406;DHT22;52016;51.228;-2.322;2022-12-18T00:11:15;-0.40;78.30
65406;DHT22;52016;51.228;-2.322;2022-12-18T00:14:58;-0.40;78.20
65406;DHT22;52016;51.228;-2.322;2022-12-18T00:18:40;-0.30;78.20
65406;DHT22;52016;51.228;-2.322;2022-12-18T00:22:23;-0.30;78.20
65406;DHT22;52016;51.228;-2.322;2022-12-18T00:26:12;-0.30;78.30
65406;DHT22;52016;51.228;-2.322;2022-12-18T00:29:55;-0.30;78.20
65406;DHT22;52016;51.228;-2.322;2022-12-18T00:33:37;-0.20;78.20
65406;DHT22;52016;51.228;-2.322;2022-12-18T00:37:20;-0.20;78.20
65406;DHT22;52016;51.228;-2.322;2022-12-18T00:41:02;-0.20;78.30
65406;DHT22;52016;51.228;-2.322;2022-12-18T00:44:44;-0.20;78.30
65406;DHT22;52016;51.228;-2.322;2022-12-18T00:48:26;-0.20;78.30
65406;DHT22;52016;51.228;-2.322;2022-12-18T00:52:08;-0.10;78.40
65406;DHT22;52016;51.228;-2.322;2022-12-18T00:55:50;-0.10;78.50
65406;DHT22;52016;51.228;-2.322;2022-12-18T00:59:32;-0.10;78.50
65406;DHT22;52016;51.228;-2.322;2022-12-18T01:03:14;-0.10;78.50
65406;DHT22;52016;51.228;-2.322;2022-12-18T01:06:57;0.00;78.50
65406;DHT22;52016;51.228;-2.322;2022-12-18T01:10:42;0.00;78.50
65406;DHT22;52016;51.228;-2.322;2022-12-18T01:14:24;0.00;78.60
65406;DHT22;52016;51.228;-2.322;2022-12-18T01:18:06;0.00;78.60
65406;DHT22;52016;51.228;-2.322;2022-12-18T01:21:48;0.00;78.60
65406;DHT22;52016;51.228;-2.322;2022-12-18T01:25:30;0.00;78.70
65406;DHT22;52016;51.228;-2.322;2022-12-18T01:29:12;0.00;78.90
65406;DHT22;52016;51.228;-2.322;2022-12-18T01:32:55;0.00;78.90
65406;DHT22;52016;51.228;-2.322;2022-12-18T01:36:38;0.00;78.90
65406;DHT22;52016;51.228;-2.322;2022-12-18T01:40:20;0.10;78.80
65406;DHT22;52016;51.228;-2.322;2022-12-18T01:48:23;0.00;79.00
65406;DHT22;52016;51.228;-2.322;2022-12-18T01:52:05;0.00;78.90
65406;DHT22;52016;51.228;-2.322;2022-12-18T01:55:52;0.10;79.00
65406;DHT22;52016;51.228;-2.322;2022-12-18T01:59:35;0.10;79.00
65406;DHT22;52016;51.228;-2.322;2022-12-18T02:03:18;0.10;79.30
65406;DHT22;52016;51.228;-2.322;2022-12-18T02:07:09;0.20;79.00
65406;DHT22;52016;51.228;-2.322;2022-12-18T02:15:13;0.20;79.50
65406;DHT22;52016;51.228;-2.322;2022-12-18T02:19:00;0.20;79.20
65406;DHT22;52016;51.228;-2.322;2022-12-18T02:26:58;0.30;79.40
65406;DHT22;52016;51.228;-2.322;2022-12-18T02:30:42;0.30;79.40
65406;DHT22;52016;51.228;-2.322;2022-12-18T02:34:31;0.40;79.40
65406;DHT22;52016;51.228;-2.322;2022-12-18T02:38:14;0.40;79.40
65406;DHT22;52016;51.228;-2.322;2022-12-18T02:41:58;0.40;79.50
65406;DHT22;52016;51.228;-2.322;2022-12-18T02:45:56;0.50;79.50
65406;DHT22;52016;51.228;-2.322;2022-12-18T02:53:48;0.50;79.40
65406;DHT22;52016;51.228;-2.322;2022-12-18T02:58:30;0.50;79.40
65406;DHT22;52016;51.228;-2.322;2022-12-18T03:06:12;0.50;79.50
65406;DHT22;52016;51.228;-2.322;2022-12-18T03:09:57;0.60;79.40
65406;DHT22;52016;51.228;-2.322;2022-12-18T03:17:28;0.60;79.40
65406;DHT22;52016;51.228;-2.322;2022-12-18T03:21:13;0.60;79.40
65406;DHT22;52016;51.228;-2.322;2022-12-18T03:24:56;0.70;79.50
65406;DHT22;52016;51.228;-2.322;2022-12-18T03:28:44;0.70;79.50
65406;DHT22;52016;51.228;-2.322;2022-12-18T03:32:31;0.80;79.50
65406;DHT22;52016;51.228;-2.322;2022-12-18T03:36:15;0.80;79.60
65406;DHT22;52016;51.228;-2.322;2022-12-18T03:39:57;0.90;79.60
65406;DHT22;52016;51.228;-2.322;2022-12-18T03:47:26;0.90;79.50
65406;DHT22;52016;51.228;-2.322;2022-12-18T03:51:18;1.00;79.50
65406;DHT22;52016;51.228;-2.322;2022-12-18T03:55:01;1.00;79.50
65406;DHT22;52016;51.228;-2.322;2022-12-18T03:58:45;1.00;79.60
65406;DHT22;52016;51.228;-2.322;2022-12-18T04:02:30;1.10;79.60
65406;DHT22;52016;51.228;-2.322;2022-12-18T04:06:14;1.10;79.60
65406;DHT22;52016;51.228;-2.322;2022-12-18T04:09:59;1.20;79.90
65406;DHT22;52016;51.228;-2.322;2022-12-18T04:13:42;1.20;80.00
65406;DHT22;52016;51.228;-2.322;2022-12-18T04:17:24;1.20;80.90
65406;DHT22;52016;51.228;-2.322;2022-12-18T04:21:07;1.20;80.70
65406;DHT22;52016;51.228;-2.322;2022-12-18T04:24:48;1.30;80.90
65406;DHT22;52016;51.228;-2.322;2022-12-18T04:28:30;1.30;80.70
65406;DHT22;52016;51.228;-2.322;2022-12-18T04:32:12;1.30;80.70
65406;DHT22;52016;51.228;-2.322;2022-12-18T04:35:54;1.40;80.80
65406;DHT22;52016;51.228;-2.322;2022-12-18T04:39:36;1.40;81.30
65406;DHT22;52016;51.228;-2.322;2022-12-18T04:43:18;1.40;81.50
65406;DHT22;52016;51.228;-2.322;2022-12-18T04:47:00;1.50;81.60
65406;DHT22;52016;51.228;-2.322;2022-12-18T04:50:42;1.50;81.60
65406;DHT22;52016;51.228;-2.322;2022-12-18T04:54:24;1.60;81.60
65406;DHT22;52016;51.228;-2.322;2022-12-18T04:58:07;1.60;81.60
65406;DHT22;52016;51.228;-2.322;2022-12-18T05:01:50;1.70;81.30
65406;DHT22;52016;51.228;-2.322;2022-12-18T05:05:34;1.80;81.20
65406;DHT22;52016;51.228;-2.322;2022-12-18T05:09:17;1.80;81.20
65406;DHT22;52016;51.228;-2.322;2022-12-18T05:13:00;1.80;81.10
65406;DHT22;52016;51.228;-2.322;2022-12-18T05:16:42;1.90;81.00
65406;DHT22;52016;51.228;-2.322;2022-12-18T05:20:25;1.90;81.10
65406;DHT22;52016;51.228;-2.322;2022-12-18T05:24:08;1.90;81.10
65406;DHT22;52016;51.228;-2.322;2022-12-18T05:27:50;1.90;80.90
65406;DHT22;52016;51.228;-2.322;2022-12-18T05:31:32;2.00;80.70
65406;DHT22;52016;51.228;-2.322;2022-12-18T05:35:20;2.00;80.80
65406;DHT22;52016;51.228;-2.322;2022-12-18T05:39:02;2.00;80.80
65406;DHT22;52016;51.228;-2.322;2022-12-18T05:42:45;2.10;81.10
65406;DHT22;52016;51.228;-2.322;2022-12-18T05:46:26;2.10;81.10
65406;DHT22;52016;51.228;-2.322;2022-12-18T05:50:09;2.20;81.60
65406;DHT22;52016;51.228;-2.322;2022-12-18T05:53:51;2.20;81.30
65406;DHT22;52016;51.228;-2.322;2022-12-18T05:57:33;2.30;81.50
65406;DHT22;52016;51.228;-2.322;2022-12-18T06:01:18;2.30;81.60
65406;DHT22;52016;51.228;-2.322;2022-12-18T06:05:00;2.30;81.40
65406;DHT22;52016;51.228;-2.322;2022-12-18T06:08:42;2.40;81.40
65406;DHT22;52016;51.228;-2.322;2022-12-18T06:12:27;2.40;81.70
65406;DHT22;52016;51.228;-2.322;2022-12-18T06:16:09;2.50;81.50
65406;DHT22;52016;51.228;-2.322;2022-12-18T06:19:51;2.50;81.50
65406;DHT22;52016;51.228;-2.322;2022-12-18T06:23:33;2.50;81.40
65406;DHT22;52016;51.228;-2.322;2022-12-18T06:27:15;2.60;81.50
65406;DHT22;52016;51.228;-2.322;2022-12-18T06:30:57;2.60;81.20
65406;DHT22;52016;51.228;-2.322;2022-12-18T06:34:40;2.60;81.20
65406;DHT22;52016;51.228;-2.322;2022-12-18T06:38:22;2.70;81.20
65406;DHT22;52016;51.228;-2.322;2022-12-18T06:42:04;2.70;81.10
65406;DHT22;52016;51.228;-2.322;2022-12-18T06:45:46;2.80;81.00
65406;DHT22;52016;51.228;-2.322;2022-12-18T06:49:34;2.80;80.80
65406;DHT22;52016;51.228;-2.322;2022-12-18T06:53:16;2.80;80.70
65406;DHT22;52016;51.228;-2.322;2022-12-18T06:56:58;2.80;80.60
65406;DHT22;52016;51.228;-2.322;2022-12-18T07:00:40;2.80;80.40
65406;DHT22;52016;51.228;-2.322;2022-12-18T07:04:28;2.90;80.30
65406;DHT22;52016;51.228;-2.322;2022-12-18T07:08:10;2.90;80.20
65406;DHT22;52016;51.228;-2.322;2022-12-18T07:11:52;2.90;80.20
65406;DHT22;52016;51.228;-2.322;2022-12-18T07:15:34;3.00;80.20
65406;DHT22;52016;51.228;-2.322;2022-12-18T07:19:16;2.90;80.10
65406;DHT22;52016;51.228;-2.322;2022-12-18T07:22:58;2.90;80.10
65406;DHT22;52016;51.228;-2.322;2022-12-18T07:26:40;2.90;80.10
65406;DHT22;52016;51.228;-2.322;2022-12-18T07:30:21;2.90;80.20
65406;DHT22;52016;51.228;-2.322;2022-12-18T07:34:03;2.90;80.30
65406;DHT22;52016;51.228;-2.322;2022-12-18T07:37:45;2.90;80.30
65406;DHT22;52016;51.228;-2.322;2022-12-18T07:41:27;2.90;80.30
65406;DHT22;52016;51.228;-2.322;2022-12-18T07:45:09;2.90;80.20
65406;DHT22;52016;51.228;-2.322;2022-12-18T07:48:52;2.90;80.10
65406;DHT22;52016;51.228;-2.322;2022-12-18T07:52:34;3.00;80.10
65406;DHT22;52016;51.228;-2.322;2022-12-18T07:56:16;3.00;80.00
65406;DHT22;52016;51.228;-2.322;2022-12-18T08:00:09;3.00;80.10
65406;DHT22;52016;51.228;-2.322;2022-12-18T08:03:51;3.10;79.90
65406;DHT22;52016;51.228;-2.322;2022-12-18T08:07:33;3.10;79.90
65406;DHT22;52016;51.228;-2.322;2022-12-18T08:11:15;3.10;79.80
65406;DHT22;52016;51.228;-2.322;2022-12-18T08:14:57;3.10;79.70
65406;DHT22;52016;51.228;-2.322;2022-12-18T08:18:39;3.10;79.60
65406;DHT22;52016;51.228;-2.322;2022-12-18T08:22:21;3.10;79.60
65406;DHT22;52016;51.228;-2.322;2022-12-18T08:26:03;3.10;79.50
65406;DHT22;52016;51.228;-2.322;2022-12-18T08:29:45;3.10;79.50
65406;DHT22;52016;51.228;-2.322;2022-12-18T08:33:27;3.10;79.50
65406;DHT22;52016;51.228;-2.322;2022-12-18T08:37:09;3.00;79.50
65406;DHT22;52016;51.228;-2.322;2022-12-18T08:41:01;2.90;79.90
65406;DHT22;52016;51.228;-2.322;2022-12-18T08:44:43;2.90;80.50
65406;DHT22;52016;51.228;-2.322;2022-12-18T08:48:25;2.90;80.60
65406;DHT22;52016;51.228;-2.322;2022-12-18T08:52:07;2.80;80.70
65406;DHT22;52016;51.228;-2.322;2022-12-18T08:55:50;2.80;80.90
65406;DHT22;52016;51.228;-2.322;2022-12-18T08:59:32;2.80;81.00
65406;DHT22;52016;51.228;-2.322;2022-12-18T09:03:16;2.80;81.10
65406;DHT22;52016;51.228;-2.322;2022-12-18T09:06:58;2.80;81.30
65406;DHT22;52016;51.228;-2.322;2022-12-18T09:10:44;2.80;81.80
65406;DHT22;52016;51.228;-2.322;2022-12-18T09:14:26;2.90;81.40
65406;DHT22;52016;51.228;-2.322;2022-12-18T09:18:09;2.90;81.20
65406;DHT22;52016;51.228;-2.322;2022-12-18T09:21:51;2.90;81.10
65406;DHT22;52016;51.228;-2.322;2022-12-18T09:25:33;2.90;81.60
65406;DHT22;52016;51.228;-2.322;2022-12-18T09:29:17;3.00;81.60
65406;DHT22;52016;51.228;-2.322;2022-12-18T09:33:00;3.00;81.80
65406;DHT22;52016;51.228;-2.322;2022-12-18T09:36:42;3.00;82.20
65406;DHT22;52016;51.228;-2.322;2022-12-18T09:40:26;3.00;82.50
65406;DHT22;52016;51.228;-2.322;2022-12-18T09:48:05;3.00;81.90
65406;DHT22;52016;51.228;-2.322;2022-12-18T09:51:56;3.10;82.40
65406;DHT22;52016;51.228;-2.322;2022-12-18T09:55:43;3.10;83.30
65406;DHT22;52016;51.228;-2.322;2022-12-18T09:59:36;3.10;83.70
65406;DHT22;52016;51.228;-2.322;2022-12-18T10:03:19;3.10;83.40
65406;DHT22;52016;51.228;-2.322;2022-12-18T10:07:13;3.10;84.60
65406;DHT22;52016;51.228;-2.322;2022-12-18T10:11:01;3.10;84.00
65406;DHT22;52016;51.228;-2.322;2022-12-18T10:15:06;3.10;84.50
65406;DHT22;52016;51.228;-2.322;2022-12-18T10:19:11;3.10;84.50
65406;DHT22;52016;51.228;-2.322;2022-12-18T10:26:48;3.20;84.50
65406;DHT22;52016;51.228;-2.322;2022-12-18T10:30:29;3.20;84.70
65406;DHT22;52016;51.228;-2.322;2022-12-18T10:34:12;3.20;84.60
65406;DHT22;52016;51.228;-2.322;2022-12-18T10:41:42;3.30;84.50
65406;DHT22;52016;51.228;-2.322;2022-12-18T10:45:24;3.30;85.10
65406;DHT22;52016;51.228;-2.322;2022-12-18T10:49:22;3.30;85.10
65406;DHT22;52016;51.228;-2.322;2022-12-18T10:53:05;3.30;85.10
65406;DHT22;52016;51.228;-2.322;2022-12-18T10:56:47;3.30;85.50
65406;DHT22;52016;51.228;-2.322;2022-12-18T11:00:30;3.40;85.30
65406;DHT22;52016;51.228;-2.322;2022-12-18T11:04:17;3.40;86.10
65406;DHT22;52016;51.228;-2.322;2022-12-18T11:08:00;3.40;85.60
65406;DHT22;52016;51.228;-2.322;2022-12-18T11:11:48;3.50;87.00
65406;DHT22;52016;51.228;-2.322;2022-12-18T11:15:30;3.50;87.20
65406;DHT22;52016;51.228;-2.322;2022-12-18T11:19:37;3.50;87.50
65406;DHT22;52016;51.228;-2.322;2022-12-18T11:23:21;3.60;87.30
65406;DHT22;52016;51.228;-2.322;2022-12-18T11:27:16;3.60;87.40
65406;DHT22;52016;51.228;-2.322;2022-12-18T11:39:00;3.70;87.90
65406;DHT22;52016;51.228;-2.322;2022-12-18T11:42:50;3.80;88.10
65406;DHT22;52016;51.228;-2.322;2022-12-18T11:47:28;3.80;88.20
65406;DHT22;52016;51.228;-2.322;2022-12-18T11:50:55;3.80;87.90
65406;DHT22;52016;51.228;-2.322;2022-12-18T11:54:38;3.90;88.20
65406;DHT22;52016;51.228;-2.322;2022-12-18T12:06:19;3.90;87.30
65406;DHT22;52016;51.228;-2.322;2022-12-18T12:38:29;4.30;89.10
65406;DHT22;52016;51.228;-2.322;2022-12-18T12:42:42;4.40;89.60
65406;DHT22;52016;51.228;-2.322;2022-12-18T12:46:45;4.50;89.70
65406;DHT22;52016;51.228;-2.322;2022-12-18T12:50:30;4.60;89.50
65406;DHT22;52016;51.228;-2.322;2022-12-18T12:54:21;4.60;89.30
65406;DHT22;52016;51.228;-2.322;2022-12-18T12:58:15;4.70;89.30
65406;DHT22;52016;51.228;-2.322;2022-12-18T13:02:12;4.70;89.40
65406;DHT22;52016;51.228;-2.322;2022-12-18T13:06:02;4.70;89.30
65406;DHT22;52016;51.228;-2.322;2022-12-18T13:13:57;4.80;89.40
65406;DHT22;52016;51.228;-2.322;2022-12-18T13:17:40;4.80;89.90
65406;DHT22;52016;51.228;-2.322;2022-12-18T13:21:29;4.90;89.40
65406;DHT22;52016;51.228;-2.322;2022-12-18T13:25:35;5.00;89.80
65406;DHT22;52016;51.228;-2.322;2022-12-18T13:29:44;5.10;89.70
65406;DHT22;52016;51.228;-2.322;2022-12-18T13:41:26;5.60;90.60
65406;DHT22;52016;51.228;-2.322;2022-12-18T13:45:47;5.80;90.60
65406;DHT22;52016;51.228;-2.322;2022-12-18T13:49:42;5.90;91.00
65406;DHT22;52016;51.228;-2.322;2022-12-18T13:53:28;6.10;91.10
65406;DHT22;52016;51.228;-2.322;2022-12-18T13:57:32;6.20;91.20
65406;DHT22;52016;51.228;-2.322;2022-12-18T14:01:24;6.30;91.20
65406;DHT22;52016;51.228;-2.322;2022-12-18T14:05:24;6.40;91.00
65406;DHT22;52016;51.228;-2.322;2022-12-18T14:09:14;6.50;90.70
65406;DHT22;52016;51.228;-2.322;2022-12-18T14:13:08;6.60;90.80
65406;DHT22;52016;51.228;-2.322;2022-12-18T14:16:52;6.60;90.60
65406;DHT22;52016;51.228;-2.322;2022-12-18T14:20:34;6.70;90.50
65406;DHT22;52016;51.228;-2.322;2022-12-18T14:24:19;6.80;90.80
65406;DHT22;52016;51.228;-2.322;2022-12-18T14:43:37;7.10;90.60
65406;DHT22;52016;51.228;-2.322;2022-12-18T14:47:20;7.20;90.50
65406;DHT22;52016;51.228;-2.322;2022-12-18T14:51:16;7.30;90.60
65406;DHT22;52016;51.228;-2.322;2022-12-18T14:54:59;7.30;90.50
65406;DHT22;52016;51.228;-2.322;2022-12-18T14:59:27;7.30;90.60
65406;DHT22;52016;51.228;-2.322;2022-12-18T15:02:53;7.30;90.20
65406;DHT22;52016;51.228;-2.322;2022-12-18T15:06:37;7.30;90.30
65406;DHT22;52016;51.228;-2.322;2022-12-18T15:18:16;7.40;90.00
65406;DHT22;52016;51.228;-2.322;2022-12-18T15:21:59;7.50;89.70
65406;DHT22;52016;51.228;-2.322;2022-12-18T15:25:49;7.50;89.90
65406;DHT22;52016;51.228;-2.322;2022-12-18T15:29:37;7.50;90.00
65406;DHT22;52016;51.228;-2.322;2022-12-18T15:33:25;7.50;89.90
65406;DHT22;52016;51.228;-2.322;2022-12-18T15:37:07;7.60;89.90
65406;DHT22;52016;51.228;-2.322;2022-12-18T15:40:49;7.60;90.40
65406;DHT22;52016;51.228;-2.322;2022-12-18T15:44:31;7.60;90.60
65406;DHT22;52016;51.228;-2.322;2022-12-18T15:48:20;7.70;90.60
65406;DHT22;52016;51.228;-2.322;2022-12-18T15:52:02;7.70;90.30
65406;DHT22;52016;51.228;-2.322;2022-12-18T15:55:45;7.70;90.20
65406;DHT22;52016;51.228;-2.322;2022-12-18T15:59:45;7.80;90.20
65406;DHT22;52016;51.228;-2.322;2022-12-18T16:03:27;7.80;90.10
65406;DHT22;52016;51.228;-2.322;2022-12-18T16:07:09;7.80;90.30
65406;DHT22;52016;51.228;-2.322;2022-12-18T16:11:03;7.80;90.10
65406;DHT22;52016;51.228;-2.322;2022-12-18T16:14:45;7.80;90.50
65406;DHT22;52016;51.228;-2.322;2022-12-18T16:18:27;7.90;90.20
65406;DHT22;52016;51.228;-2.322;2022-12-18T16:22:27;7.90;90.20
65406;DHT22;52016;51.228;-2.322;2022-12-18T16:26:10;7.90;90.00
65406;DHT22;52016;51.228;-2.322;2022-12-18T16:29:52;7.90;90.10
65406;DHT22;52016;51.228;-2.322;2022-12-18T16:33:34;8.00;90.10
65406;DHT22;52016;51.228;-2.322;2022-12-18T16:37:16;8.00;90.10
65406;DHT22;52016;51.228;-2.322;2022-12-18T16:40:58;8.00;89.90
65406;DHT22;52016;51.228;-2.322;2022-12-18T16:44:59;8.10;90.10
65406;DHT22;52016;51.228;-2.322;2022-12-18T16:48:41;8.00;90.20
65406;DHT22;52016;51.228;-2.322;2022-12-18T16:52:23;8.10;90.20
65406;DHT22;52016;51.228;-2.322;2022-12-18T16:56:05;8.10;90.00
65406;DHT22;52016;51.228;-2.322;2022-12-18T16:59:48;8.10;89.60
65406;DHT22;52016;51.228;-2.322;2022-12-18T17:03:31;8.20;89.90
65406;DHT22;52016;51.228;-2.322;2022-12-18T17:07:13;8.20;89.90
65406;DHT22;52016;51.228;-2.322;2022-12-18T17:10:56;8.20;90.10
65406;DHT22;52016;51.228;-2.322;2022-12-18T17:14:38;8.30;90.40
65406;DHT22;52016;51.228;-2.322;2022-12-18T17:18:20;8.30;90.10
65406;DHT22;52016;51.228;-2.322;2022-12-18T17:22:02;8.30;90.30
65406;DHT22;52016;51.228;-2.322;2022-12-18T17:25:45;8.30;90.30
65406;DHT22;52016;51.228;-2.322;2022-12-18T17:29:27;8.30;89.90
65406;DHT22;52016;51.228;-2.322;2022-12-18T17:33:09;8.40;90.20
65406;DHT22;52016;51.228;-2.322;2022-12-18T17:36:51;8.40;90.00
65406;DHT22;52016;51.228;-2.322;2022-12-18T17:40:33;8.40;89.80
65406;DHT22;52016;51.228;-2.322;2022-12-18T17:44:16;8.50;90.10
65406;DHT22;52016;51.228;-2.322;2022-12-18T17:47:58;8.50;90.10
65406;DHT22;52016;51.228;-2.322;2022-12-18T17:51:41;8.60;90.40
65406;DHT22;52016;51.228;-2.322;2022-12-18T17:55:24;8.60;90.30
65406;DHT22;52016;51.228;-2.322;2022-12-18T17:59:06;8.60;90.20
65406;DHT22;52016;51.228;-2.322;2022-12-18T18:02:48;8.60;90.20
65406;DHT22;52016;51.228;-2.322;2022-12-18T18:06:31;8.60;90.10
65406;DHT22;52016;51.228;-2.322;2022-12-18T18:10:15;8.60;89.90
65406;DHT22;52016;51.228;-2.322;2022-12-18T18:13:58;8.60;90.10
65406;DHT22;52016;51.228;-2.322;2022-12-18T18:17:42;8.70;90.00
65406;DHT22;52016;51.228;-2.322;2022-12-18T18:21:25;8.70;90.20
65406;DHT22;52016;51.228;-2.322;2022-12-18T18:25:08;8.80;90.10
65406;DHT22;52016;51.228;-2.322;2022-12-18T18:28:53;8.80;89.90
65406;DHT22;52016;51.228;-2.322;2022-12-18T18:32:35;8.80;90.00
65406;DHT22;52016;51.228;-2.322;2022-12-18T18:36:21;8.80;89.90
65406;DHT22;52016;51.228;-2.322;2022-12-18T18:40:04;8.90;89.70
65406;DHT22;52016;51.228;-2.322;2022-12-18T18:43:46;8.90;89.80
65406;DHT22;52016;51.228;-2.322;2022-12-18T18:47:28;9.00;89.80
65406;DHT22;52016;51.228;-2.322;2022-12-18T18:51:13;9.00;89.90
65406;DHT22;52016;51.228;-2.322;2022-12-18T18:55:02;9.10;90.00
65406;DHT22;52016;51.228;-2.322;2022-12-18T18:58:57;9.10;90.00
65406;DHT22;52016;51.228;-2.322;2022-12-18T19:02:39;9.20;90.00
65406;DHT22;52016;51.228;-2.322;2022-12-18T19:06:25;9.30;89.90
65406;DHT22;52016;51.228;-2.322;2022-12-18T19:10:09;9.40;89.80
65406;DHT22;52016;51.228;-2.322;2022-12-18T19:13:51;9.40;89.90
65406;DHT22;52016;51.228;-2.322;2022-12-18T19:17:33;9.50;89.70
65406;DHT22;52016;51.228;-2.322;2022-12-18T19:21:15;9.50;90.00
65406;DHT22;52016;51.228;-2.322;2022-12-18T19:24:58;9.50;89.60
65406;DHT22;52016;51.228;-2.322;2022-12-18T19:28:40;9.60;89.50
65406;DHT22;52016;51.228;-2.322;2022-12-18T19:32:23;9.60;89.90
65406;DHT22;52016;51.228;-2.322;2022-12-18T19:36:26;9.60;90.00
65406;DHT22;52016;51.228;-2.322;2022-12-18T19:40:09;9.70;89.50
65406;DHT22;52016;51.228;-2.322;2022-12-18T19:43:53;9.80;89.80
65406;DHT22;52016;51.228;-2.322;2022-12-18T19:47:35;9.80;90.00
65406;DHT22;52016;51.228;-2.322;2022-12-18T19:51:23;9.80;89.90
65406;DHT22;52016;51.228;-2.322;2022-12-18T19:55:05;9.90;89.70
65406;DHT22;52016;51.228;-2.322;2022-12-18T19:58:48;9.90;89.90
65406;DHT22;52016;51.228;-2.322;2022-12-18T20:02:30;9.90;89.70
65406;DHT22;52016;51.228;-2.322;2022-12-18T20:06:49;9.90;89.80
65406;DHT22;52016;51.228;-2.322;2022-12-18T20:10:32;9.90;89.80
65406;DHT22;52016;51.228;-2.322;2022-12-18T20:14:15;9.90;89.80
65406;DHT22;52016;51.228;-2.322;2022-12-18T20:18:04;10.00;89.70
65406;DHT22;52016;51.228;-2.322;2022-12-18T20:21:46;10.00;89.50
65406;DHT22;52016;51.228;-2.322;2022-12-18T20:25:28;10.10;89.60
65406;DHT22;52016;51.228;-2.322;2022-12-18T20:29:10;10.20;89.50
65406;DHT22;52016;51.228;-2.322;2022-12-18T20:32:52;10.30;89.80
65406;DHT22;52016;51.228;-2.322;2022-12-18T20:36:34;10.20;89.70
65406;DHT22;52016;51.228;-2.322;2022-12-18T20:40:19;10.30;89.70
65406;DHT22;52016;51.228;-2.322;2022-12-18T20:44:01;10.30;89.80
65406;DHT22;52016;51.228;-2.322;2022-12-18T20:47:43;10.30;89.80
65406;DHT22;52016;51.228;-2.322;2022-12-18T20:51:25;10.30;89.80
65406;DHT22;52016;51.228;-2.322;2022-12-18T20:55:08;10.40;89.80
65406;DHT22;52016;51.228;-2.322;2022-12-18T20:58:51;10.40;89.70
65406;DHT22;52016;51.228;-2.322;2022-12-18T21:02:36;10.40;89.90
65406;DHT22;52016;51.228;-2.322;2022-12-18T21:06:20;10.40;89.70
65406;DHT22;52016;51.228;-2.322;2022-12-18T21:10:02;10.50;89.80
65406;DHT22;52016;51.228;-2.322;2022-12-18T21:13:44;10.60;89.50
65406;DHT22;52016;51.228;-2.322;2022-12-18T21:17:27;10.60;89.50
65406;DHT22;52016;51.228;-2.322;2022-12-18T21:21:10;10.80;89.50
65406;DHT22;52016;51.228;-2.322;2022-12-18T21:24:53;10.80;90.30
65406;DHT22;52016;51.228;-2.322;2022-12-18T21:28:35;10.80;90.00
65406;DHT22;52016;51.228;-2.322;2022-12-18T21:32:17;10.80;89.40
65406;DHT22;52016;51.228;-2.322;2022-12-18T21:36:04;10.90;89.30
65406;DHT22;52016;51.228;-2.322;2022-12-18T21:39:46;11.00;89.10
65406;DHT22;52016;51.228;-2.322;2022-12-18T21:43:28;11.10;89.70
65406;DHT22;52016;51.228;-2.322;2022-12-18T21:47:29;11.00;89.90
65406;DHT22;52016;51.228;-2.322;2022-12-18T21:51:11;11.10;89.70
65406;DHT22;52016;51.228;-2.322;2022-12-18T21:54:53;11.20;89.70
65406;DHT22;52016;51.228;-2.322;2022-12-18T21:58:35;11.20;90.30
65406;DHT22;52016;51.228;-2.322;2022-12-18T22:02:19;11.20;89.60
65406;DHT22;52016;51.228;-2.322;2022-12-18T22:06:02;11.30;89.40
65406;DHT22;52016;51.228;-2.322;2022-12-18T22:09:50;11.30;89.40
65406;DHT22;52016;51.228;-2.322;2022-12-18T22:13:32;11.30;89.90
65406;DHT22;52016;51.228;-2.322;2022-12-18T22:17:14;11.30;89.60
65406;DHT22;52016;51.228;-2.322;2022-12-18T22:21:04;11.30;89.20
65406;DHT22;52016;51.228;-2.322;2022-12-18T22:24:46;11.30;89.30
65406;DHT22;52016;51.228;-2.322;2022-12-18T22:28:28;11.40;89.60
65406;DHT22;52016;51.228;-2.322;2022-12-18T22:32:31;11.40;89.50
65406;DHT22;52016;51.228;-2.322;2022-12-18T22:36:13;11.40;89.60
65406;DHT22;52016;51.228;-2.322;2022-12-18T22:39:57;11.40;89.60
65406;DHT22;52016;51.228;-2.322;2022-12-18T22:43:39;11.40;89.70
65406;DHT22;52016;51.228;-2.322;2022-12-18T22:47:21;11.40;89.90
65406;DHT22;52016;51.228;-2.322;2022-12-18T22:51:14;11.30;89.60
65406;DHT22;52016;51.228;-2.322;2022-12-18T22:54:57;11.30;89.80
65406;DHT22;52016;51.228;-2.322;2022-12-18T22:58:39;11.30;89.80
65406;DHT22;52016;51.228;-2.322;2022-12-18T23:02:21;11.30;89.70
65406;DHT22;52016;51.228;-2.322;2022-12-18T23:06:05;11.40;90.00
65406;DHT22;52016;51.228;-2.322;2022-12-18T23:09:49;11.30;90.10
65406;DHT22;52016;51.228;-2.322;2022-12-18T23:13:39;11.30;90.00
65406;DHT22;52016;51.228;-2.322;2022-12-18T23:17:21;11.30;90.10
65406;DHT22;52016;51.228;-2.322;2022-12-18T23:24:47;11.40;90.20
65406;DHT22;52016;51.228;-2.322;2022-12-18T23:28:31;11.30;90.10
65406;DHT22;52016;51.228;-2.322;2022-12-18T23:32:13;11.40;90.30
65406;DHT22;52016;51.228;-2.322;2022-12-18T23:35:59;11.40;90.20
65406;DHT22;52016;51.228;-2.322;2022-12-18T23:39:42;11.40;89.90
65406;DHT22;52016;51.228;-2.322;2022-12-18T23:43:25;11.40;89.50
65406;DHT22;52016;51.228;-2.322;2022-12-18T23:47:07;11.50;90.20
65406;DHT22;52016;51.228;-2.322;2022-12-18T23:50:49;11.50;89.90
65406;DHT22;52016;51.228;-2.322;2022-12-18T23:54:31;11.50;89.80
65406;DHT22;52016;51.228;-2.322;2022-12-18T23:58:17;11.60;89.90
